BAW22 LTFM-EDDF
Flight info
| Callsign | BAW22 |
|---|---|
| Flight time | 2h 38m |
| Altitude | 38000 |
| Route | VADEN1D/35L VADEN N618 BAKLO DCT XANEX DCT UTEKA DCT BABIT DCT GOTAR DCT ABRUK DCT SIMBA DCT AKINI T161 DEBHI DEBHI1B |
| Aircraft | B77W/H-SDE1E2E3FGHIJ2J3J4J5M1RWXY/LB1D1 |
Departure
| Time | 2026-05-04 19:23 |
|---|---|
| Airport | İstanbul Airport (LTFM) |
Arrival
| Time | 2026-05-04 22:01 |
|---|---|
| Airport | Frankfurt Main Airport (EDDF) |
| Time | Latitude | Longitude | Altitude | Speed | Heading |
|---|---|---|---|---|---|
| 2026-05-04 18:42 | 41.26421 | 28.73817 | 317 ft | 0 kts | 251° |
| 2026-05-04 19:06 | 41.26424 | 28.73829 | 318 ft | 4 kts | 250° |
| 2026-05-04 19:06 | 41.26434 | 28.73863 | 317 ft | 4 kts | 250° |
| 2026-05-04 19:06 | 41.26442 | 28.73895 | 315 ft | 3 kts | 250° |
| 2026-05-04 19:07 | 41.26453 | 28.73918 | 317 ft | 4 kts | 183° |
| 2026-05-04 19:07 | 41.26475 | 28.73907 | 316 ft | 4 kts | 149° |
| 2026-05-04 19:07 | 41.26491 | 28.73896 | 317 ft | 1 kts | 162° |
| 2026-05-04 19:07 | 41.26494 | 28.73895 | 317 ft | 0 kts | 162° |
| 2026-05-04 19:12 | 41.26493 | 28.73895 | 318 ft | 0 kts | 162° |
| 2026-05-04 19:12 | 41.26489 | 28.73897 | 318 ft | 1 kts | 162° |
| 2026-05-04 19:13 | 41.26466 | 28.73908 | 318 ft | 6 kts | 160° |
| 2026-05-04 19:13 | 41.26425 | 28.73943 | 318 ft | 8 kts | 125° |
| 2026-05-04 19:13 | 41.26438 | 28.74010 | 318 ft | 9 kts | 38° |
| 2026-05-04 19:13 | 41.26498 | 28.74019 | 318 ft | 9 kts | 359° |
| 2026-05-04 19:14 | 41.26560 | 28.74019 | 318 ft | 9 kts | 360° |
| 2026-05-04 19:14 | 41.26622 | 28.74019 | 318 ft | 9 kts | 0° |
| 2026-05-04 19:14 | 41.26678 | 28.74018 | 318 ft | 6 kts | 358° |
| 2026-05-04 19:14 | 41.26715 | 28.74015 | 318 ft | 0 kts | 356° |
| 2026-05-04 19:15 | 41.26718 | 28.74015 | 318 ft | 1 kts | 360° |
| 2026-05-04 19:15 | 41.26725 | 28.74015 | 318 ft | 0 kts | 359° |
| 2026-05-04 19:16 | 41.26728 | 28.74015 | 318 ft | 1 kts | 1° |
| 2026-05-04 19:16 | 41.26768 | 28.74015 | 318 ft | 12 kts | 360° |
| 2026-05-04 19:16 | 41.26912 | 28.74012 | 318 ft | 25 kts | 359° |
| 2026-05-04 19:17 | 41.27038 | 28.73977 | 316 ft | 13 kts | 309° |
| 2026-05-04 19:17 | 41.27041 | 28.73970 | 317 ft | 1 kts | 300° |
| 2026-05-04 19:17 | 41.27048 | 28.73921 | 316 ft | 7 kts | 275° |
| 2026-05-04 19:17 | 41.27050 | 28.73852 | 315 ft | 7 kts | 270° |
| 2026-05-04 19:18 | 41.27049 | 28.73783 | 315 ft | 7 kts | 269° |
| 2026-05-04 19:18 | 41.27047 | 28.73673 | 318 ft | 23 kts | 269° |
| 2026-05-04 19:18 | 41.27044 | 28.73417 | 316 ft | 27 kts | 269° |
| 2026-05-04 19:18 | 41.27041 | 28.73195 | 314 ft | 21 kts | 269° |
| 2026-05-04 19:19 | 41.27026 | 28.73016 | 314 ft | 12 kts | 231° |
| 2026-05-04 19:19 | 41.26946 | 28.72991 | 313 ft | 12 kts | 182° |
| 2026-05-04 19:19 | 41.26921 | 28.72990 | 314 ft | 2 kts | 180° |
| 2026-05-04 19:19 | 41.26919 | 28.72990 | 314 ft | 0 kts | 180° |
| 2026-05-04 19:20 | 41.26918 | 28.72990 | 314 ft | 0 kts | 180° |
| 2026-05-04 19:20 | 41.26892 | 28.72991 | 314 ft | 10 kts | 179° |
| 2026-05-04 19:20 | 41.26778 | 28.72991 | 314 ft | 20 kts | 189° |
| 2026-05-04 19:20 | 41.26719 | 28.72895 | 313 ft | 14 kts | 264° |
| 2026-05-04 19:21 | 41.26716 | 28.72772 | 314 ft | 13 kts | 269° |
| 2026-05-04 19:21 | 41.26714 | 28.72654 | 315 ft | 7 kts | 268° |
| 2026-05-04 19:21 | 41.26714 | 28.72646 | 315 ft | 1 kts | 268° |
| 2026-05-04 19:21 | 41.26714 | 28.72636 | 318 ft | 2 kts | 268° |
| 2026-05-04 19:22 | 41.26716 | 28.72577 | 316 ft | 12 kts | 280° |
| 2026-05-04 19:22 | 41.26774 | 28.72518 | 315 ft | 0 kts | 354° |
| 2026-05-04 19:23 | 41.26780 | 28.72517 | 315 ft | 10 kts | 354° |
| 2026-05-04 19:23 | 41.27262 | 28.72503 | 300 ft | 131 kts | 359° |
| 2026-05-04 19:23 | 41.28541 | 28.72489 | 543 ft | 219 kts | 0° |
| 2026-05-04 19:23 | 41.30029 | 28.72582 | 1495 ft | 207 kts | 1° |
| 2026-05-04 19:24 | 41.31410 | 28.72518 | 2676 ft | 193 kts | 358° |
| 2026-05-04 19:24 | 41.32799 | 28.72397 | 3277 ft | 211 kts | 358° |
| 2026-05-04 19:24 | 41.34337 | 28.72252 | 3819 ft | 227 kts | 358° |
| 2026-05-04 19:24 | 41.35899 | 28.72146 | 4937 ft | 219 kts | 359° |
| 2026-05-04 19:25 | 41.37395 | 28.72068 | 5912 ft | 219 kts | 355° |
| 2026-05-04 19:25 | 41.38855 | 28.71293 | 5636 ft | 240 kts | 325° |
| 2026-05-04 19:25 | 41.39851 | 28.69555 | 5810 ft | 232 kts | 306° |
| 2026-05-04 19:25 | 41.40581 | 28.67659 | 6691 ft | 231 kts | 303° |
| 2026-05-04 19:26 | 41.41053 | 28.66344 | 7213 ft | 234 kts | 303° |
| 2026-05-04 19:26 | 41.41764 | 28.64344 | 7910 ft | 242 kts | 303° |
| 2026-05-04 19:26 | 41.42489 | 28.62279 | 8575 ft | 252 kts | 303° |
| 2026-05-04 19:26 | 41.43289 | 28.60222 | 9279 ft | 252 kts | 308° |
| 2026-05-04 19:27 | 41.44255 | 28.58284 | 10165 ft | 246 kts | 313° |
| 2026-05-04 19:27 | 41.45217 | 28.56428 | 10957 ft | 247 kts | 312° |
| 2026-05-04 19:27 | 41.46184 | 28.54488 | 11782 ft | 248 kts | 312° |
| 2026-05-04 19:27 | 41.47201 | 28.52456 | 11663 ft | 289 kts | 310° |
| 2026-05-04 19:28 | 41.48298 | 28.50148 | 11427 ft | 297 kts | 308° |
| 2026-05-04 19:28 | 41.49373 | 28.47803 | 11165 ft | 295 kts | 308° |
| 2026-05-04 19:28 | 41.50424 | 28.45475 | 10914 ft | 290 kts | 308° |
| 2026-05-04 19:28 | 41.51454 | 28.43179 | 10665 ft | 285 kts | 308° |
| 2026-05-04 19:29 | 41.52448 | 28.40954 | 10681 ft | 272 kts | 308° |
| 2026-05-04 19:29 | 41.53418 | 28.38789 | 10684 ft | 275 kts | 309° |
| 2026-05-04 19:29 | 41.54448 | 28.36513 | 10922 ft | 299 kts | 308° |
| 2026-05-04 19:29 | 41.55577 | 28.34015 | 11134 ft | 328 kts | 307° |
| 2026-05-04 19:30 | 41.56797 | 28.31294 | 11509 ft | 352 kts | 307° |
| 2026-05-04 19:30 | 41.58058 | 28.28427 | 12330 ft | 363 kts | 305° |
| 2026-05-04 19:30 | 41.59248 | 28.25398 | 13347 ft | 371 kts | 302° |
| 2026-05-04 19:30 | 41.60406 | 28.22286 | 14306 ft | 377 kts | 301° |
| 2026-05-04 19:31 | 41.61575 | 28.19116 | 15224 ft | 383 kts | 302° |
| 2026-05-04 19:31 | 41.62769 | 28.15900 | 16111 ft | 389 kts | 302° |
| 2026-05-04 19:31 | 41.63989 | 28.12639 | 17005 ft | 396 kts | 302° |
| 2026-05-04 19:31 | 41.65222 | 28.09362 | 17885 ft | 402 kts | 302° |
| 2026-05-04 19:32 | 41.66493 | 28.05989 | 18724 ft | 409 kts | 302° |
| 2026-05-04 19:32 | 41.67784 | 28.02581 | 19548 ft | 412 kts | 303° |
| 2026-05-04 19:32 | 41.69228 | 27.99268 | 20412 ft | 412 kts | 308° |
| 2026-05-04 19:32 | 41.70798 | 27.96045 | 21256 ft | 415 kts | 309° |
| 2026-05-04 19:33 | 41.72418 | 27.92827 | 22061 ft | 419 kts | 309° |
| 2026-05-04 19:33 | 41.74054 | 27.89571 | 22862 ft | 423 kts | 309° |
| 2026-05-04 19:33 | 41.75696 | 27.86266 | 23645 ft | 428 kts | 309° |
| 2026-05-04 19:33 | 41.77338 | 27.82918 | 24300 ft | 432 kts | 308° |
| 2026-05-04 19:34 | 41.78987 | 27.79523 | 24945 ft | 437 kts | 308° |
| 2026-05-04 19:34 | 41.80644 | 27.76088 | 25555 ft | 441 kts | 308° |
| 2026-05-04 19:34 | 41.82292 | 27.72657 | 26161 ft | 445 kts | 307° |
| 2026-05-04 19:34 | 41.83979 | 27.69140 | 26691 ft | 451 kts | 307° |
| 2026-05-04 19:35 | 41.85686 | 27.65578 | 27232 ft | 455 kts | 307° |
| 2026-05-04 19:35 | 41.87404 | 27.61988 | 27823 ft | 459 kts | 307° |
| 2026-05-04 19:35 | 41.89137 | 27.58362 | 28405 ft | 462 kts | 307° |
| 2026-05-04 19:35 | 41.90875 | 27.54722 | 28970 ft | 465 kts | 307° |
| 2026-05-04 19:36 | 41.92636 | 27.51032 | 29483 ft | 469 kts | 307° |
| 2026-05-04 19:36 | 41.94381 | 27.47370 | 29971 ft | 473 kts | 307° |
| 2026-05-04 19:36 | 41.96107 | 27.43575 | 30381 ft | 477 kts | 303° |
| 2026-05-04 19:36 | 41.97753 | 27.39697 | 30846 ft | 478 kts | 302° |
| 2026-05-04 19:37 | 41.99362 | 27.35788 | 31398 ft | 477 kts | 302° |
| 2026-05-04 19:37 | 42.00959 | 27.31878 | 31919 ft | 476 kts | 302° |
| 2026-05-04 19:37 | 42.02555 | 27.27984 | 32481 ft | 474 kts | 302° |
| 2026-05-04 19:37 | 42.04156 | 27.24106 | 33043 ft | 472 kts | 303° |
| 2026-05-04 19:38 | 42.05758 | 27.20249 | 33587 ft | 470 kts | 303° |
| 2026-05-04 19:38 | 42.07359 | 27.16411 | 34012 ft | 471 kts | 302° |
| 2026-05-04 19:38 | 42.08947 | 27.12610 | 34412 ft | 470 kts | 302° |
| 2026-05-04 19:38 | 42.10545 | 27.08782 | 34869 ft | 468 kts | 302° |
| 2026-05-04 19:39 | 42.12138 | 27.04961 | 35359 ft | 465 kts | 302° |
| 2026-05-04 19:39 | 42.13719 | 27.01165 | 35826 ft | 463 kts | 302° |
| 2026-05-04 19:39 | 42.15295 | 26.97375 | 36098 ft | 465 kts | 302° |
| 2026-05-04 19:40 | 42.18484 | 26.89697 | 36050 ft | 467 kts | 302° |
| 2026-05-04 19:40 | 42.21624 | 26.82104 | 36056 ft | 461 kts | 302° |
| 2026-05-04 19:41 | 42.24742 | 26.74547 | 36061 ft | 461 kts | 302° |
| 2026-05-04 19:41 | 42.27856 | 26.66982 | 36065 ft | 461 kts | 302° |
| 2026-05-04 19:42 | 42.30971 | 26.59399 | 36064 ft | 461 kts | 301° |
| 2026-05-04 19:42 | 42.34060 | 26.51853 | 36071 ft | 462 kts | 301° |
| 2026-05-04 19:43 | 42.37171 | 26.44235 | 36074 ft | 462 kts | 301° |
| 2026-05-04 19:43 | 42.40273 | 26.36619 | 36069 ft | 462 kts | 301° |
| 2026-05-04 19:44 | 42.43368 | 26.29003 | 36073 ft | 461 kts | 301° |
| 2026-05-04 19:44 | 42.46451 | 26.21393 | 36049 ft | 461 kts | 301° |
| 2026-05-04 19:45 | 42.49527 | 26.13783 | 36052 ft | 460 kts | 301° |
| 2026-05-04 19:45 | 42.52600 | 26.06160 | 36045 ft | 460 kts | 300° |
| 2026-05-04 19:46 | 42.55640 | 25.98598 | 36061 ft | 460 kts | 300° |
| 2026-05-04 19:46 | 42.58698 | 25.90973 | 36069 ft | 460 kts | 300° |
| 2026-05-04 19:47 | 42.61752 | 25.83337 | 36068 ft | 460 kts | 300° |
| 2026-05-04 19:47 | 42.64799 | 25.75697 | 36068 ft | 460 kts | 300° |
| 2026-05-04 19:48 | 42.67844 | 25.68044 | 36071 ft | 460 kts | 300° |
| 2026-05-04 19:48 | 42.70887 | 25.60373 | 36078 ft | 461 kts | 300° |
| 2026-05-04 19:49 | 42.73909 | 25.52737 | 36067 ft | 461 kts | 300° |
| 2026-05-04 19:49 | 42.76938 | 25.45060 | 36081 ft | 460 kts | 300° |
| 2026-05-04 19:50 | 42.79963 | 25.37377 | 36079 ft | 460 kts | 300° |
| 2026-05-04 19:50 | 42.82990 | 25.29668 | 36082 ft | 460 kts | 300° |
| 2026-05-04 19:51 | 42.85099 | 25.24282 | 36094 ft | 459 kts | 300° |
| 2026-05-04 19:51 | 42.88084 | 25.16642 | 36086 ft | 459 kts | 300° |
| 2026-05-04 19:52 | 42.91077 | 25.08964 | 36089 ft | 459 kts | 300° |
| 2026-05-04 19:52 | 42.94087 | 25.01221 | 36388 ft | 464 kts | 300° |
| 2026-05-04 19:52 | 42.95602 | 24.97317 | 36683 ft | 465 kts | 300° |
| 2026-05-04 19:53 | 42.97118 | 24.93405 | 36876 ft | 468 kts | 300° |
| 2026-05-04 19:53 | 42.98644 | 24.89459 | 37052 ft | 470 kts | 299° |
| 2026-05-04 19:53 | 43.00172 | 24.85504 | 37352 ft | 470 kts | 299° |
| 2026-05-04 19:53 | 43.01701 | 24.81539 | 37455 ft | 471 kts | 299° |
| 2026-05-04 19:54 | 43.03216 | 24.77605 | 37834 ft | 465 kts | 299° |
| 2026-05-04 19:54 | 43.04716 | 24.73701 | 38136 ft | 462 kts | 299° |
| 2026-05-04 19:54 | 43.06211 | 24.69809 | 38096 ft | 462 kts | 299° |
| 2026-05-04 19:55 | 43.09170 | 24.62091 | 38099 ft | 459 kts | 299° |
| 2026-05-04 19:55 | 43.12126 | 24.54363 | 38111 ft | 458 kts | 299° |
| 2026-05-04 19:56 | 43.15075 | 24.46629 | 38105 ft | 458 kts | 299° |
| 2026-05-04 19:56 | 43.18022 | 24.38880 | 38105 ft | 458 kts | 299° |
| 2026-05-04 19:57 | 43.20944 | 24.31175 | 38109 ft | 458 kts | 299° |
| 2026-05-04 19:57 | 43.23883 | 24.23404 | 38105 ft | 459 kts | 299° |
| 2026-05-04 19:58 | 43.26827 | 24.15596 | 38103 ft | 460 kts | 299° |
| 2026-05-04 19:58 | 43.29766 | 24.07782 | 38091 ft | 461 kts | 299° |
| 2026-05-04 19:59 | 43.32700 | 23.99958 | 38094 ft | 460 kts | 298° |
| 2026-05-04 19:59 | 43.35627 | 23.92131 | 38091 ft | 460 kts | 298° |
| 2026-05-04 20:00 | 43.38542 | 23.84315 | 38086 ft | 459 kts | 298° |
| 2026-05-04 20:00 | 43.41444 | 23.76514 | 38083 ft | 457 kts | 298° |
| 2026-05-04 20:01 | 43.44310 | 23.68785 | 38079 ft | 456 kts | 298° |
| 2026-05-04 20:01 | 43.47187 | 23.61009 | 38072 ft | 455 kts | 298° |
| 2026-05-04 20:02 | 43.50052 | 23.53239 | 38071 ft | 454 kts | 298° |
| 2026-05-04 20:02 | 43.52910 | 23.45470 | 38067 ft | 454 kts | 298° |
| 2026-05-04 20:03 | 43.55756 | 23.37709 | 38069 ft | 453 kts | 298° |
| 2026-05-04 20:03 | 43.58598 | 23.29939 | 38064 ft | 453 kts | 298° |
| 2026-05-04 20:04 | 43.61423 | 23.22195 | 38058 ft | 454 kts | 298° |
| 2026-05-04 20:04 | 43.64256 | 23.14405 | 38058 ft | 454 kts | 298° |
| 2026-05-04 20:05 | 43.67090 | 23.06592 | 38068 ft | 454 kts | 298° |
| 2026-05-04 20:05 | 43.69916 | 22.98778 | 38064 ft | 455 kts | 298° |
| 2026-05-04 20:06 | 43.72738 | 22.90952 | 38070 ft | 455 kts | 298° |
| 2026-05-04 20:06 | 43.75554 | 22.83122 | 38064 ft | 455 kts | 298° |
| 2026-05-04 20:07 | 43.78365 | 22.75283 | 38073 ft | 455 kts | 298° |
| 2026-05-04 20:07 | 43.81150 | 22.67495 | 38066 ft | 454 kts | 298° |
| 2026-05-04 20:08 | 43.83948 | 22.59648 | 38067 ft | 454 kts | 298° |
| 2026-05-04 20:08 | 43.86735 | 22.51807 | 38077 ft | 453 kts | 298° |
| 2026-05-04 20:09 | 43.89520 | 22.43957 | 38074 ft | 453 kts | 298° |
| 2026-05-04 20:09 | 43.92810 | 22.36544 | 38079 ft | 450 kts | 309° |
| 2026-05-04 20:10 | 43.96849 | 22.29910 | 38075 ft | 449 kts | 312° |
| 2026-05-04 20:10 | 44.00952 | 22.23350 | 38078 ft | 450 kts | 312° |
| 2026-05-04 20:11 | 44.05022 | 22.16792 | 38073 ft | 451 kts | 312° |
| 2026-05-04 20:11 | 44.09103 | 22.10160 | 38080 ft | 451 kts | 311° |
| 2026-05-04 20:12 | 44.12489 | 22.04635 | 38086 ft | 451 kts | 311° |
| 2026-05-04 20:12 | 44.17243 | 21.96854 | 38085 ft | 451 kts | 311° |
| 2026-05-04 20:13 | 44.21281 | 21.90230 | 38086 ft | 450 kts | 311° |
| 2026-05-04 20:13 | 44.24672 | 21.84657 | 38102 ft | 450 kts | 311° |
| 2026-05-04 20:14 | 44.28721 | 21.77987 | 38092 ft | 450 kts | 311° |
| 2026-05-04 20:14 | 44.32761 | 21.71317 | 38084 ft | 449 kts | 311° |
| 2026-05-04 20:15 | 44.36794 | 21.64644 | 38091 ft | 449 kts | 311° |
| 2026-05-04 20:15 | 44.40790 | 21.58017 | 38086 ft | 449 kts | 311° |
| 2026-05-04 20:16 | 44.44811 | 21.51331 | 38091 ft | 449 kts | 311° |
| 2026-05-04 20:16 | 44.48829 | 21.44635 | 38082 ft | 449 kts | 311° |
| 2026-05-04 20:17 | 44.52851 | 21.37918 | 38095 ft | 450 kts | 311° |
| 2026-05-04 20:17 | 44.56878 | 21.31175 | 38088 ft | 452 kts | 311° |
| 2026-05-04 20:18 | 44.60885 | 21.24449 | 38079 ft | 453 kts | 311° |
| 2026-05-04 20:18 | 44.64923 | 21.17656 | 38071 ft | 453 kts | 311° |
| 2026-05-04 20:19 | 44.68968 | 21.10836 | 38074 ft | 453 kts | 311° |
| 2026-05-04 20:19 | 44.73001 | 21.04018 | 38075 ft | 453 kts | 311° |
| 2026-05-04 20:20 | 44.77022 | 20.97205 | 38074 ft | 452 kts | 311° |
| 2026-05-04 20:20 | 44.81038 | 20.90384 | 38070 ft | 451 kts | 310° |
| 2026-05-04 20:21 | 44.85009 | 20.83622 | 38073 ft | 450 kts | 310° |
| 2026-05-04 20:21 | 44.90969 | 20.73444 | 38074 ft | 448 kts | 310° |
| 2026-05-04 20:22 | 44.94941 | 20.66642 | 38073 ft | 447 kts | 310° |
| 2026-05-04 20:22 | 44.98887 | 20.59868 | 38083 ft | 446 kts | 310° |
| 2026-05-04 20:23 | 45.02798 | 20.53137 | 38082 ft | 446 kts | 310° |
| 2026-05-04 20:23 | 45.06749 | 20.46321 | 38060 ft | 446 kts | 310° |
| 2026-05-04 20:24 | 45.10686 | 20.39514 | 38064 ft | 447 kts | 310° |
| 2026-05-04 20:24 | 45.14602 | 20.32725 | 38072 ft | 448 kts | 310° |
| 2026-05-04 20:25 | 45.18544 | 20.25875 | 38052 ft | 448 kts | 310° |
| 2026-05-04 20:25 | 45.22490 | 20.19002 | 38072 ft | 449 kts | 310° |
| 2026-05-04 20:26 | 45.26416 | 20.12092 | 38076 ft | 449 kts | 309° |
| 2026-05-04 20:26 | 45.30354 | 20.05195 | 38065 ft | 450 kts | 310° |
| 2026-05-04 20:27 | 45.34308 | 19.98303 | 38064 ft | 450 kts | 310° |
| 2026-05-04 20:27 | 45.38257 | 19.91373 | 38066 ft | 450 kts | 309° |
| 2026-05-04 20:28 | 45.42165 | 19.84481 | 38060 ft | 450 kts | 309° |
| 2026-05-04 20:28 | 45.46096 | 19.77531 | 38049 ft | 450 kts | 309° |
| 2026-05-04 20:29 | 45.50025 | 19.70569 | 38063 ft | 450 kts | 309° |
| 2026-05-04 20:29 | 45.53949 | 19.63599 | 38063 ft | 450 kts | 309° |
| 2026-05-04 20:30 | 45.57864 | 19.56626 | 38063 ft | 450 kts | 309° |
| 2026-05-04 20:30 | 45.61773 | 19.49648 | 38058 ft | 450 kts | 309° |
| 2026-05-04 20:31 | 45.65657 | 19.42698 | 38055 ft | 450 kts | 309° |
| 2026-05-04 20:31 | 45.69571 | 19.35675 | 38058 ft | 450 kts | 309° |
| 2026-05-04 20:32 | 45.73445 | 19.28707 | 38065 ft | 450 kts | 309° |
| 2026-05-04 20:32 | 45.77342 | 19.21681 | 38059 ft | 450 kts | 309° |
| 2026-05-04 20:33 | 45.81228 | 19.14657 | 38056 ft | 450 kts | 309° |
| 2026-05-04 20:33 | 45.85111 | 19.07620 | 38055 ft | 449 kts | 309° |
| 2026-05-04 20:34 | 45.88988 | 19.00577 | 38057 ft | 450 kts | 309° |
| 2026-05-04 20:34 | 45.92848 | 18.93504 | 38054 ft | 450 kts | 307° |
| 2026-05-04 20:35 | 45.96163 | 18.85953 | 38057 ft | 450 kts | 301° |
| 2026-05-04 20:35 | 45.99327 | 18.78170 | 38048 ft | 450 kts | 301° |
| 2026-05-04 20:36 | 46.02490 | 18.70394 | 38055 ft | 450 kts | 301° |
| 2026-05-04 20:36 | 46.05666 | 18.62622 | 38059 ft | 450 kts | 301° |
| 2026-05-04 20:37 | 46.08824 | 18.54898 | 38058 ft | 450 kts | 301° |
| 2026-05-04 20:37 | 46.12000 | 18.47111 | 38064 ft | 450 kts | 301° |
| 2026-05-04 20:38 | 46.15169 | 18.39319 | 38059 ft | 450 kts | 301° |
| 2026-05-04 20:38 | 46.18329 | 18.31526 | 38066 ft | 450 kts | 300° |
| 2026-05-04 20:39 | 46.21486 | 18.23718 | 37997 ft | 448 kts | 300° |
| 2026-05-04 20:39 | 46.23028 | 18.19895 | 37796 ft | 445 kts | 300° |
| 2026-05-04 20:39 | 46.24581 | 18.16040 | 37478 ft | 444 kts | 300° |
| 2026-05-04 20:40 | 46.26135 | 18.12176 | 37181 ft | 443 kts | 300° |
| 2026-05-04 20:40 | 46.27681 | 18.08327 | 36918 ft | 442 kts | 300° |
| 2026-05-04 20:40 | 46.29220 | 18.04491 | 36684 ft | 440 kts | 300° |
| 2026-05-04 20:40 | 46.30750 | 18.00672 | 36476 ft | 437 kts | 300° |
| 2026-05-04 20:41 | 46.32272 | 17.96868 | 36272 ft | 436 kts | 300° |
| 2026-05-04 20:41 | 46.33784 | 17.93084 | 36104 ft | 433 kts | 301° |
| 2026-05-04 20:41 | 46.36792 | 17.85541 | 36034 ft | 433 kts | 300° |
| 2026-05-04 20:42 | 46.39788 | 17.78005 | 36030 ft | 435 kts | 300° |
| 2026-05-04 20:42 | 46.42812 | 17.70380 | 36011 ft | 437 kts | 300° |
| 2026-05-04 20:43 | 46.45839 | 17.62723 | 36010 ft | 438 kts | 300° |
| 2026-05-04 20:43 | 46.48861 | 17.55059 | 36005 ft | 437 kts | 300° |
| 2026-05-04 20:44 | 46.51880 | 17.47383 | 36023 ft | 437 kts | 300° |
| 2026-05-04 20:44 | 46.54886 | 17.39716 | 36027 ft | 436 kts | 300° |
| 2026-05-04 20:45 | 46.57864 | 17.32099 | 36028 ft | 435 kts | 300° |
| 2026-05-04 20:45 | 46.60851 | 17.24437 | 36013 ft | 435 kts | 299° |
| 2026-05-04 20:46 | 46.63830 | 17.16776 | 36029 ft | 435 kts | 299° |
| 2026-05-04 20:46 | 46.66802 | 17.09110 | 36013 ft | 435 kts | 299° |
| 2026-05-04 20:47 | 46.69775 | 17.01421 | 36011 ft | 435 kts | 299° |
| 2026-05-04 20:47 | 46.72726 | 16.93766 | 36007 ft | 436 kts | 299° |
| 2026-05-04 20:48 | 46.75698 | 16.86035 | 35992 ft | 437 kts | 298° |
| 2026-05-04 20:48 | 46.78732 | 16.78119 | 35996 ft | 455 kts | 298° |
| 2026-05-04 20:49 | 46.81802 | 16.70084 | 35993 ft | 456 kts | 298° |
| 2026-05-04 20:49 | 46.84882 | 16.62001 | 35989 ft | 455 kts | 298° |
| 2026-05-04 20:50 | 46.87960 | 16.53900 | 35989 ft | 455 kts | 298° |
| 2026-05-04 20:50 | 46.91027 | 16.45803 | 35986 ft | 455 kts | 298° |
| 2026-05-04 20:51 | 46.94095 | 16.37677 | 35981 ft | 456 kts | 298° |
| 2026-05-04 20:51 | 46.97161 | 16.29536 | 35999 ft | 457 kts | 298° |
| 2026-05-04 20:52 | 47.00185 | 16.21393 | 35979 ft | 457 kts | 296° |
| 2026-05-04 20:52 | 47.02935 | 16.13001 | 35983 ft | 457 kts | 294° |
| 2026-05-04 20:53 | 47.05621 | 16.04537 | 35983 ft | 457 kts | 294° |
| 2026-05-04 20:53 | 47.08313 | 15.96080 | 35978 ft | 457 kts | 294° |
| 2026-05-04 20:54 | 47.11012 | 15.87628 | 35981 ft | 457 kts | 294° |
| 2026-05-04 20:54 | 47.13697 | 15.79206 | 35987 ft | 457 kts | 294° |
| 2026-05-04 20:55 | 47.16392 | 15.70730 | 35981 ft | 457 kts | 294° |
| 2026-05-04 20:55 | 47.19082 | 15.62239 | 35983 ft | 457 kts | 294° |
| 2026-05-04 20:56 | 47.21767 | 15.53732 | 35986 ft | 457 kts | 294° |
| 2026-05-04 20:56 | 47.24421 | 15.45292 | 35994 ft | 457 kts | 293° |
| 2026-05-04 20:57 | 47.27090 | 15.36780 | 35990 ft | 457 kts | 293° |
| 2026-05-04 20:57 | 47.29751 | 15.28261 | 35988 ft | 457 kts | 293° |
| 2026-05-04 20:58 | 47.32410 | 15.19724 | 35985 ft | 457 kts | 293° |
| 2026-05-04 20:58 | 47.35040 | 15.11248 | 35985 ft | 457 kts | 293° |
| 2026-05-04 20:59 | 47.37690 | 15.02703 | 35995 ft | 457 kts | 294° |
| 2026-05-04 20:59 | 47.40307 | 14.95914 | 36008 ft | 458 kts | 301° |
| 2026-05-04 21:00 | 47.43809 | 14.88043 | 36009 ft | 458 kts | 302° |
| 2026-05-04 21:00 | 47.47310 | 14.80168 | 36001 ft | 458 kts | 301° |
| 2026-05-04 21:01 | 47.50789 | 14.72252 | 35998 ft | 458 kts | 301° |
| 2026-05-04 21:01 | 47.54226 | 14.64371 | 35976 ft | 459 kts | 301° |
| 2026-05-04 21:02 | 47.57702 | 14.56369 | 35961 ft | 459 kts | 301° |
| 2026-05-04 21:02 | 47.61151 | 14.48410 | 35954 ft | 459 kts | 301° |
| 2026-05-04 21:03 | 47.64580 | 14.40476 | 35960 ft | 460 kts | 301° |
| 2026-05-04 21:03 | 47.68024 | 14.32483 | 35939 ft | 460 kts | 300° |
| 2026-05-04 21:04 | 47.71459 | 14.24487 | 35929 ft | 459 kts | 300° |
| 2026-05-04 21:04 | 47.74882 | 14.16497 | 35941 ft | 458 kts | 300° |
| 2026-05-04 21:05 | 47.78301 | 14.08494 | 35931 ft | 458 kts | 300° |
| 2026-05-04 21:05 | 47.81689 | 14.00536 | 35913 ft | 458 kts | 300° |
| 2026-05-04 21:06 | 47.85084 | 13.92536 | 35924 ft | 457 kts | 300° |
| 2026-05-04 21:06 | 47.88491 | 13.84497 | 35911 ft | 458 kts | 300° |
| 2026-05-04 21:07 | 47.91888 | 13.76449 | 35894 ft | 459 kts | 300° |
| 2026-05-04 21:07 | 47.95280 | 13.68388 | 35898 ft | 458 kts | 300° |
| 2026-05-04 21:08 | 47.98665 | 13.60319 | 35900 ft | 459 kts | 299° |
| 2026-05-04 21:08 | 48.02033 | 13.52269 | 35894 ft | 460 kts | 299° |
| 2026-05-04 21:09 | 48.05419 | 13.44152 | 35894 ft | 460 kts | 299° |
| 2026-05-04 21:09 | 48.08798 | 13.36026 | 35894 ft | 460 kts | 299° |
| 2026-05-04 21:10 | 48.12177 | 13.27877 | 35895 ft | 461 kts | 299° |
| 2026-05-04 21:10 | 48.15550 | 13.19715 | 35895 ft | 461 kts | 299° |
| 2026-05-04 21:11 | 48.18926 | 13.11524 | 35891 ft | 461 kts | 299° |
| 2026-05-04 21:11 | 48.22310 | 13.03340 | 35890 ft | 462 kts | 301° |
| 2026-05-04 21:12 | 48.26297 | 12.95816 | 35899 ft | 465 kts | 309° |
| 2026-05-04 21:12 | 48.30633 | 12.88591 | 35897 ft | 466 kts | 309° |
| 2026-05-04 21:13 | 48.34959 | 12.81341 | 35893 ft | 465 kts | 309° |
| 2026-05-04 21:13 | 48.39251 | 12.74058 | 35891 ft | 465 kts | 308° |
| 2026-05-04 21:14 | 48.43528 | 12.66756 | 35897 ft | 465 kts | 308° |
| 2026-05-04 21:14 | 48.47807 | 12.59429 | 35895 ft | 465 kts | 308° |
| 2026-05-04 21:15 | 48.52050 | 12.52144 | 35896 ft | 465 kts | 308° |
| 2026-05-04 21:15 | 48.56321 | 12.44795 | 35897 ft | 465 kts | 308° |
| 2026-05-04 21:16 | 48.60580 | 12.37444 | 35900 ft | 465 kts | 308° |
| 2026-05-04 21:16 | 48.64836 | 12.30077 | 35905 ft | 465 kts | 308° |
| 2026-05-04 21:17 | 48.69067 | 12.22735 | 35924 ft | 465 kts | 308° |
| 2026-05-04 21:17 | 48.73168 | 12.15183 | 35900 ft | 461 kts | 299° |
| 2026-05-04 21:18 | 48.75696 | 12.06371 | 35918 ft | 454 kts | 282° |
| 2026-05-04 21:18 | 48.76741 | 11.96974 | 35925 ft | 452 kts | 276° |
| 2026-05-04 21:19 | 48.77673 | 11.87540 | 35934 ft | 452 kts | 276° |
| 2026-05-04 21:19 | 48.78649 | 11.78164 | 35944 ft | 453 kts | 276° |
| 2026-05-04 21:20 | 48.79646 | 11.68713 | 35942 ft | 454 kts | 276° |
| 2026-05-04 21:20 | 48.80635 | 11.59253 | 35937 ft | 454 kts | 276° |
| 2026-05-04 21:21 | 48.81627 | 11.49781 | 35940 ft | 455 kts | 276° |
| 2026-05-04 21:21 | 48.82613 | 11.40299 | 35955 ft | 455 kts | 276° |
| 2026-05-04 21:22 | 48.83592 | 11.30811 | 35926 ft | 451 kts | 276° |
| 2026-05-04 21:22 | 48.84214 | 11.26221 | 35463 ft | 452 kts | 285° |
| 2026-05-04 21:22 | 48.85487 | 11.21921 | 34984 ft | 442 kts | 297° |
| 2026-05-04 21:23 | 48.87237 | 11.18095 | 34562 ft | 442 kts | 307° |
| 2026-05-04 21:23 | 48.89425 | 11.14796 | 34087 ft | 443 kts | 315° |
| 2026-05-04 21:23 | 48.91745 | 11.11737 | 33598 ft | 440 kts | 315° |
| 2026-05-04 21:23 | 48.94031 | 11.08659 | 33110 ft | 436 kts | 314° |
| 2026-05-04 21:24 | 48.96243 | 11.05607 | 32654 ft | 432 kts | 314° |
| 2026-05-04 21:24 | 48.98445 | 11.02518 | 32214 ft | 429 kts | 313° |
| 2026-05-04 21:24 | 49.00625 | 10.99436 | 31769 ft | 426 kts | 313° |
| 2026-05-04 21:24 | 49.02789 | 10.96372 | 31341 ft | 423 kts | 313° |
| 2026-05-04 21:25 | 49.04938 | 10.93335 | 30898 ft | 420 kts | 313° |
| 2026-05-04 21:25 | 49.07070 | 10.90320 | 30461 ft | 417 kts | 313° |
| 2026-05-04 21:25 | 49.09201 | 10.87309 | 30024 ft | 415 kts | 313° |
| 2026-05-04 21:25 | 49.11312 | 10.84330 | 29527 ft | 412 kts | 314° |
| 2026-05-04 21:26 | 49.13410 | 10.81368 | 29062 ft | 408 kts | 314° |
| 2026-05-04 21:26 | 49.15487 | 10.78434 | 28614 ft | 404 kts | 314° |
| 2026-05-04 21:26 | 49.17543 | 10.75523 | 28178 ft | 401 kts | 314° |
| 2026-05-04 21:26 | 49.19556 | 10.72669 | 27744 ft | 398 kts | 313° |
| 2026-05-04 21:27 | 49.21529 | 10.69736 | 27307 ft | 394 kts | 311° |
| 2026-05-04 21:27 | 49.23438 | 10.66723 | 26872 ft | 391 kts | 309° |
| 2026-05-04 21:27 | 49.25306 | 10.63726 | 26429 ft | 388 kts | 309° |
| 2026-05-04 21:27 | 49.27167 | 10.60749 | 26019 ft | 386 kts | 310° |
| 2026-05-04 21:28 | 49.29029 | 10.57788 | 25601 ft | 384 kts | 310° |
| 2026-05-04 21:28 | 49.30880 | 10.54858 | 25182 ft | 382 kts | 310° |
| 2026-05-04 21:28 | 49.32707 | 10.51972 | 24760 ft | 380 kts | 310° |
| 2026-05-04 21:28 | 49.34540 | 10.49074 | 24349 ft | 378 kts | 310° |
| 2026-05-04 21:29 | 49.36356 | 10.46165 | 23947 ft | 375 kts | 307° |
| 2026-05-04 21:29 | 49.37960 | 10.43039 | 23563 ft | 371 kts | 302° |
| 2026-05-04 21:29 | 49.39417 | 10.39781 | 23154 ft | 369 kts | 300° |
| 2026-05-04 21:29 | 49.40841 | 10.36495 | 22741 ft | 369 kts | 300° |
| 2026-05-04 21:30 | 49.42270 | 10.33227 | 22346 ft | 368 kts | 300° |
| 2026-05-04 21:30 | 49.43715 | 10.29973 | 21984 ft | 368 kts | 301° |
| 2026-05-04 21:30 | 49.45171 | 10.26731 | 21604 ft | 367 kts | 301° |
| 2026-05-04 21:30 | 49.46623 | 10.23519 | 21235 ft | 364 kts | 301° |
| 2026-05-04 21:31 | 49.49481 | 10.17212 | 20513 ft | 359 kts | 301° |
| 2026-05-04 21:31 | 49.50908 | 10.14061 | 20143 ft | 359 kts | 301° |
| 2026-05-04 21:31 | 49.52338 | 10.10896 | 19784 ft | 359 kts | 301° |
| 2026-05-04 21:32 | 49.53764 | 10.07737 | 19442 ft | 359 kts | 301° |
| 2026-05-04 21:32 | 49.55192 | 10.04574 | 19084 ft | 359 kts | 301° |
| 2026-05-04 21:32 | 49.56616 | 10.01414 | 18715 ft | 358 kts | 301° |
| 2026-05-04 21:32 | 49.58015 | 9.98308 | 18364 ft | 356 kts | 301° |
| 2026-05-04 21:33 | 49.59420 | 9.95185 | 17959 ft | 352 kts | 301° |
| 2026-05-04 21:33 | 49.60807 | 9.92098 | 17583 ft | 349 kts | 301° |
| 2026-05-04 21:33 | 49.62182 | 9.89032 | 17214 ft | 345 kts | 301° |
| 2026-05-04 21:33 | 49.63546 | 9.85988 | 16862 ft | 343 kts | 301° |
| 2026-05-04 21:34 | 49.64895 | 9.82975 | 16500 ft | 340 kts | 301° |
| 2026-05-04 21:34 | 49.66231 | 9.79983 | 16175 ft | 337 kts | 301° |
| 2026-05-04 21:34 | 49.67558 | 9.77010 | 15833 ft | 335 kts | 301° |
| 2026-05-04 21:34 | 49.68877 | 9.74052 | 15495 ft | 333 kts | 301° |
| 2026-05-04 21:35 | 49.70188 | 9.71111 | 15163 ft | 331 kts | 301° |
| 2026-05-04 21:35 | 49.71492 | 9.68180 | 14827 ft | 329 kts | 301° |
| 2026-05-04 21:35 | 49.72786 | 9.65268 | 14504 ft | 328 kts | 301° |
| 2026-05-04 21:35 | 49.74061 | 9.62398 | 14171 ft | 327 kts | 301° |
| 2026-05-04 21:36 | 49.75348 | 9.59494 | 13862 ft | 327 kts | 301° |
| 2026-05-04 21:36 | 49.76631 | 9.56597 | 13486 ft | 326 kts | 301° |
| 2026-05-04 21:36 | 49.77911 | 9.53706 | 13116 ft | 325 kts | 301° |
| 2026-05-04 21:36 | 49.79185 | 9.50822 | 12799 ft | 323 kts | 301° |
| 2026-05-04 21:37 | 49.80450 | 9.47958 | 12457 ft | 322 kts | 301° |
| 2026-05-04 21:37 | 49.81710 | 9.45102 | 12142 ft | 320 kts | 301° |
| 2026-05-04 21:37 | 49.82962 | 9.42259 | 11828 ft | 318 kts | 301° |
| 2026-05-04 21:37 | 49.84208 | 9.39427 | 11503 ft | 317 kts | 301° |
| 2026-05-04 21:38 | 49.85449 | 9.36603 | 11193 ft | 316 kts | 301° |
| 2026-05-04 21:38 | 49.86537 | 9.33711 | 10945 ft | 302 kts | 288° |
| 2026-05-04 21:38 | 49.87136 | 9.30677 | 10869 ft | 298 kts | 282° |
| 2026-05-04 21:38 | 49.87691 | 9.27533 | 10759 ft | 305 kts | 282° |
| 2026-05-04 21:39 | 49.88270 | 9.24336 | 10658 ft | 309 kts | 283° |
| 2026-05-04 21:39 | 49.88864 | 9.21133 | 10535 ft | 307 kts | 283° |
| 2026-05-04 21:39 | 49.89460 | 9.17965 | 10423 ft | 305 kts | 283° |
| 2026-05-04 21:39 | 49.90059 | 9.14803 | 10322 ft | 304 kts | 283° |
| 2026-05-04 21:40 | 49.90654 | 9.11671 | 10217 ft | 301 kts | 283° |
| 2026-05-04 21:40 | 49.91237 | 9.08605 | 10122 ft | 292 kts | 283° |
| 2026-05-04 21:40 | 49.91796 | 9.05661 | 10005 ft | 283 kts | 283° |
| 2026-05-04 21:40 | 49.92342 | 9.02780 | 9899 ft | 275 kts | 283° |
| 2026-05-04 21:41 | 49.92881 | 8.99920 | 9819 ft | 277 kts | 283° |
| 2026-05-04 21:41 | 49.93421 | 8.97051 | 9705 ft | 276 kts | 283° |
| 2026-05-04 21:41 | 49.94080 | 8.94284 | 9589 ft | 274 kts | 299° |
| 2026-05-04 21:41 | 49.95441 | 8.92216 | 9517 ft | 281 kts | 329° |
| 2026-05-04 21:42 | 49.97330 | 8.91317 | 9434 ft | 289 kts | 355° |
| 2026-05-04 21:42 | 49.99331 | 8.91377 | 9353 ft | 293 kts | 1° |
| 2026-05-04 21:42 | 50.01346 | 8.91836 | 9212 ft | 295 kts | 21° |
| 2026-05-04 21:42 | 50.03039 | 8.93604 | 9131 ft | 295 kts | 50° |
| 2026-05-04 21:43 | 50.04092 | 8.96296 | 9032 ft | 290 kts | 70° |
| 2026-05-04 21:43 | 50.04789 | 8.99243 | 8934 ft | 290 kts | 73° |
| 2026-05-04 21:43 | 50.05460 | 9.02204 | 8834 ft | 289 kts | 73° |
| 2026-05-04 21:43 | 50.06130 | 9.05129 | 8721 ft | 285 kts | 72° |
| 2026-05-04 21:44 | 50.06796 | 9.08023 | 8612 ft | 282 kts | 73° |
| 2026-05-04 21:44 | 50.07461 | 9.10893 | 8527 ft | 281 kts | 72° |
| 2026-05-04 21:44 | 50.08117 | 9.13721 | 8428 ft | 281 kts | 73° |
| 2026-05-04 21:44 | 50.08782 | 9.16586 | 8334 ft | 281 kts | 72° |
| 2026-05-04 21:45 | 50.09448 | 9.19449 | 8230 ft | 280 kts | 72° |
| 2026-05-04 21:45 | 50.10109 | 9.22296 | 8144 ft | 279 kts | 72° |
| 2026-05-04 21:45 | 50.10768 | 9.25144 | 8054 ft | 279 kts | 72° |
| 2026-05-04 21:45 | 50.11429 | 9.28000 | 7965 ft | 280 kts | 72° |
| 2026-05-04 21:46 | 50.12091 | 9.30862 | 7853 ft | 280 kts | 72° |
| 2026-05-04 21:46 | 50.12741 | 9.33676 | 7768 ft | 280 kts | 72° |
| 2026-05-04 21:46 | 50.13400 | 9.36531 | 7665 ft | 280 kts | 72° |
| 2026-05-04 21:46 | 50.14058 | 9.39386 | 7556 ft | 279 kts | 72° |
| 2026-05-04 21:47 | 50.14713 | 9.42238 | 7482 ft | 279 kts | 72° |
| 2026-05-04 21:47 | 50.15367 | 9.45082 | 7380 ft | 278 kts | 72° |
| 2026-05-04 21:47 | 50.16000 | 9.47932 | 7288 ft | 276 kts | 73° |
| 2026-05-04 21:47 | 50.16864 | 9.50554 | 7213 ft | 272 kts | 49° |
| 2026-05-04 21:48 | 50.17816 | 9.51821 | 7197 ft | 274 kts | 30° |
| 2026-05-04 21:48 | 50.19633 | 9.52716 | 7190 ft | 279 kts | 2° |
| 2026-05-04 21:48 | 50.21532 | 9.52236 | 7118 ft | 277 kts | 334° |
| 2026-05-04 21:48 | 50.23065 | 9.50514 | 7047 ft | 268 kts | 310° |
| 2026-05-04 21:49 | 50.24316 | 9.48373 | 6999 ft | 265 kts | 308° |
| 2026-05-04 21:49 | 50.25255 | 9.45941 | 6920 ft | 262 kts | 283° |
| 2026-05-04 21:49 | 50.25364 | 9.43137 | 6876 ft | 261 kts | 258° |
| 2026-05-04 21:49 | 50.24759 | 9.39511 | 6789 ft | 259 kts | 250° |
| 2026-05-04 21:50 | 50.24392 | 9.37719 | 6761 ft | 254 kts | 250° |
| 2026-05-04 21:50 | 50.23852 | 9.35133 | 6718 ft | 246 kts | 250° |
| 2026-05-04 21:50 | 50.23339 | 9.32674 | 6714 ft | 236 kts | 250° |
| 2026-05-04 21:50 | 50.22837 | 9.30275 | 6654 ft | 229 kts | 250° |
| 2026-05-04 21:51 | 50.22337 | 9.27926 | 6503 ft | 226 kts | 249° |
| 2026-05-04 21:51 | 50.21830 | 9.25620 | 6347 ft | 224 kts | 249° |
| 2026-05-04 21:51 | 50.21319 | 9.23329 | 6136 ft | 224 kts | 249° |
| 2026-05-04 21:51 | 50.20800 | 9.21025 | 5929 ft | 224 kts | 249° |
| 2026-05-04 21:52 | 50.20274 | 9.18746 | 5763 ft | 220 kts | 244° |
| 2026-05-04 21:52 | 50.19538 | 9.16683 | 5604 ft | 213 kts | 239° |
| 2026-05-04 21:52 | 50.18838 | 9.14702 | 5432 ft | 212 kts | 240° |
| 2026-05-04 21:52 | 50.18303 | 9.12517 | 5101 ft | 227 kts | 254° |
| 2026-05-04 21:53 | 50.17901 | 9.10004 | 5050 ft | 248 kts | 253° |
| 2026-05-04 21:53 | 50.17408 | 9.07401 | 5010 ft | 248 kts | 250° |
| 2026-05-04 21:53 | 50.16864 | 9.04924 | 4992 ft | 233 kts | 249° |
| 2026-05-04 21:53 | 50.16340 | 9.02669 | 4957 ft | 208 kts | 248° |
| 2026-05-04 21:54 | 50.15854 | 9.00613 | 4986 ft | 200 kts | 248° |
| 2026-05-04 21:54 | 50.15374 | 8.98597 | 5020 ft | 199 kts | 248° |
| 2026-05-04 21:54 | 50.14893 | 8.96578 | 5005 ft | 199 kts | 248° |
| 2026-05-04 21:54 | 50.14411 | 8.94557 | 5003 ft | 199 kts | 248° |
| 2026-05-04 21:55 | 50.13928 | 8.92531 | 5000 ft | 199 kts | 248° |
| 2026-05-04 21:55 | 50.13444 | 8.90499 | 5001 ft | 199 kts | 248° |
| 2026-05-04 21:55 | 50.12962 | 8.88474 | 5000 ft | 199 kts | 248° |
| 2026-05-04 21:55 | 50.12479 | 8.86447 | 4997 ft | 198 kts | 248° |
| 2026-05-04 21:56 | 50.12014 | 8.84496 | 4833 ft | 192 kts | 248° |
| 2026-05-04 21:56 | 50.11566 | 8.82614 | 4498 ft | 177 kts | 248° |
| 2026-05-04 21:56 | 50.11153 | 8.80881 | 4251 ft | 167 kts | 248° |
| 2026-05-04 21:56 | 50.10744 | 8.79171 | 4073 ft | 170 kts | 248° |
| 2026-05-04 21:57 | 50.10333 | 8.77450 | 3808 ft | 166 kts | 249° |
| 2026-05-04 21:57 | 50.09937 | 8.75788 | 3573 ft | 164 kts | 249° |
| 2026-05-04 21:57 | 50.09537 | 8.74113 | 3334 ft | 165 kts | 249° |
| 2026-05-04 21:57 | 50.09135 | 8.72430 | 3098 ft | 166 kts | 249° |
| 2026-05-04 21:58 | 50.08733 | 8.70745 | 2848 ft | 166 kts | 249° |
| 2026-05-04 21:58 | 50.08339 | 8.69092 | 2593 ft | 157 kts | 250° |
| 2026-05-04 21:58 | 50.07973 | 8.67557 | 2339 ft | 146 kts | 250° |
| 2026-05-04 21:58 | 50.07620 | 8.66103 | 2199 ft | 141 kts | 249° |
| 2026-05-04 21:59 | 50.07262 | 8.64663 | 2053 ft | 147 kts | 250° |
| 2026-05-04 21:59 | 50.06902 | 8.63158 | 1845 ft | 151 kts | 250° |
| 2026-05-04 21:59 | 50.06539 | 8.61625 | 1622 ft | 146 kts | 250° |
| 2026-05-04 21:59 | 50.06186 | 8.60128 | 1364 ft | 149 kts | 251° |
| 2026-05-04 22:00 | 50.05839 | 8.58629 | 1089 ft | 142 kts | 251° |
| 2026-05-04 22:00 | 50.05501 | 8.57208 | 887 ft | 139 kts | 250° |
| 2026-05-04 22:00 | 50.05164 | 8.55803 | 677 ft | 138 kts | 249° |
| 2026-05-04 22:00 | 50.04830 | 8.54420 | 524 ft | 135 kts | 250° |
| 2026-05-04 22:01 | 50.04510 | 8.53065 | 372 ft | 136 kts | 251° |
| 2026-05-04 22:01 | 50.04197 | 8.51762 | 346 ft | 111 kts | 250° |
| 2026-05-04 22:01 | 50.03993 | 8.50906 | 328 ft | 63 kts | 249° |
| 2026-05-04 22:01 | 50.03857 | 8.50429 | 322 ft | 36 kts | 236° |
| 2026-05-04 22:02 | 50.03713 | 8.50215 | 320 ft | 19 kts | 218° |
| 2026-05-04 22:02 | 50.03630 | 8.50250 | 327 ft | 12 kts | 99° |
| 2026-05-04 22:02 | 50.03645 | 8.50357 | 327 ft | 10 kts | 72° |
| 2026-05-04 22:02 | 50.03669 | 8.50456 | 329 ft | 10 kts | 69° |
| 2026-05-04 22:03 | 50.03693 | 8.50555 | 332 ft | 10 kts | 69° |
| 2026-05-04 22:03 | 50.03716 | 8.50652 | 332 ft | 10 kts | 69° |
| 2026-05-04 22:03 | 50.03740 | 8.50751 | 334 ft | 10 kts | 70° |
| 2026-05-04 22:03 | 50.03763 | 8.50849 | 336 ft | 10 kts | 69° |
| 2026-05-04 22:04 | 50.03788 | 8.50948 | 337 ft | 10 kts | 69° |
| 2026-05-04 22:04 | 50.03811 | 8.51047 | 336 ft | 10 kts | 70° |
| 2026-05-04 22:04 | 50.03834 | 8.51146 | 336 ft | 10 kts | 69° |
| 2026-05-04 22:04 | 50.03859 | 8.51247 | 338 ft | 10 kts | 69° |
| 2026-05-04 22:05 | 50.03887 | 8.51358 | 335 ft | 11 kts | 71° |
| 2026-05-04 22:05 | 50.03914 | 8.51476 | 337 ft | 12 kts | 70° |
| 2026-05-04 22:05 | 50.03943 | 8.51595 | 337 ft | 12 kts | 70° |
| 2026-05-04 22:05 | 50.03971 | 8.51715 | 353 ft | 12 kts | 70° |
| 2026-05-04 22:06 | 50.03999 | 8.51835 | 350 ft | 12 kts | 70° |
| 2026-05-04 22:06 | 50.04028 | 8.51957 | 351 ft | 12 kts | 69° |
| 2026-05-04 22:06 | 50.04058 | 8.52078 | 349 ft | 12 kts | 69° |
| 2026-05-04 22:06 | 50.04087 | 8.52200 | 354 ft | 12 kts | 70° |
| 2026-05-04 22:07 | 50.04118 | 8.52331 | 356 ft | 15 kts | 70° |
| 2026-05-04 22:07 | 50.04164 | 8.52525 | 362 ft | 23 kts | 69° |
| 2026-05-04 22:07 | 50.04228 | 8.52791 | 362 ft | 30 kts | 70° |
| 2026-05-04 22:07 | 50.04308 | 8.53123 | 366 ft | 35 kts | 69° |
| 2026-05-04 22:08 | 50.04388 | 8.53471 | 379 ft | 31 kts | 75° |
| 2026-05-04 22:08 | 50.04414 | 8.53793 | 380 ft | 30 kts | 85° |
| 2026-05-04 22:08 | 50.04435 | 8.54115 | 380 ft | 30 kts | 83° |
| 2026-05-04 22:08 | 50.04453 | 8.54439 | 375 ft | 30 kts | 92° |
| 2026-05-04 22:09 | 50.04356 | 8.54727 | 369 ft | 32 kts | 142° |
| 2026-05-04 22:09 | 50.04142 | 8.54870 | 362 ft | 34 kts | 160° |
| 2026-05-04 22:09 | 50.04027 | 8.55026 | 361 ft | 20 kts | 81° |
| 2026-05-04 22:09 | 50.04071 | 8.55236 | 365 ft | 20 kts | 70° |
| 2026-05-04 22:10 | 50.04121 | 8.55447 | 363 ft | 21 kts | 69° |
| 2026-05-04 22:10 | 50.04173 | 8.55659 | 366 ft | 21 kts | 70° |
| 2026-05-04 22:10 | 50.04222 | 8.55869 | 365 ft | 21 kts | 66° |
| 2026-05-04 22:10 | 50.04316 | 8.55939 | 364 ft | 16 kts | 343° |
| 2026-05-04 22:11 | 50.04414 | 8.55977 | 365 ft | 16 kts | 51° |
| 2026-05-04 22:11 | 50.04458 | 8.56137 | 369 ft | 16 kts | 69° |
| 2026-05-04 22:11 | 50.04497 | 8.56302 | 366 ft | 16 kts | 69° |
| 2026-05-04 22:11 | 50.04559 | 8.56442 | 368 ft | 16 kts | 33° |
| 2026-05-04 22:12 | 50.04635 | 8.56500 | 368 ft | 1 kts | 24° |
| 2026-05-04 22:12 | 50.04643 | 8.56505 | 367 ft | 2 kts | 23° |
| 2026-05-04 22:12 | 50.04657 | 8.56516 | 369 ft | 3 kts | 28° |
| 2026-05-04 22:12 | 50.04665 | 8.56546 | 367 ft | 3 kts | 88° |
| 2026-05-04 22:13 | 50.04658 | 8.56583 | 365 ft | 3 kts | 108° |
| 2026-05-04 22:13 | 50.04650 | 8.56616 | 367 ft | 4 kts | 112° |
| 2026-05-04 22:13 | 50.04644 | 8.56637 | 367 ft | 1 kts | 113° |
| 2026-05-04 22:13 | 50.04641 | 8.56648 | 364 ft | 1 kts | 113° |
| 2026-05-04 22:14 | 50.04641 | 8.56649 | 364 ft | 0 kts | 113° |